createdAt,value
2018-05-24T00:02:26.991Z,69.76
2018-05-24T00:04:55.867Z,67.54
2018-05-24T00:07:23.789Z,67.56
2018-05-24T00:09:52.420Z,65.94
2018-05-24T00:12:21.106Z,66.77
2018-05-24T00:14:49.579Z,69.50
2018-05-24T00:17:18.410Z,68.85
2018-05-24T00:19:46.707Z,68.68
2018-05-24T00:22:15.429Z,69.79
2018-05-24T00:24:44.018Z,67.14
2018-05-24T00:27:12.405Z,66.95
2018-05-24T00:29:40.334Z,69.50
2018-05-24T00:32:08.283Z,70.75
2018-05-24T00:34:36.238Z,69.47
2018-05-24T00:37:04.254Z,70.03
2018-05-24T00:39:32.255Z,70.55
2018-05-24T00:42:00.273Z,69.72
2018-05-24T00:44:28.289Z,68.94
2018-05-24T00:46:56.218Z,71.12
2018-05-24T00:49:24.177Z,70.12
2018-05-24T00:51:52.161Z,70.88
2018-05-24T00:54:20.346Z,70.95
2018-05-24T00:56:48.409Z,71.97
2018-05-24T00:59:16.369Z,72.40
2018-05-24T01:01:44.321Z,76.90
2018-05-24T01:04:12.344Z,72.45
2018-05-24T01:06:40.322Z,70.60
2018-05-24T01:09:08.310Z,68.79
2018-05-24T01:11:36.300Z,66.76
2018-05-24T01:14:04.351Z,67.39
2018-05-24T01:16:32.338Z,68.24
2018-05-24T01:19:00.273Z,67.75
2018-05-24T01:21:28.300Z,68.12
2018-05-24T01:23:56.289Z,68.80
2018-05-24T01:26:24.305Z,66.92
2018-05-24T01:28:52.929Z,65.51
2018-05-24T01:31:21.473Z,64.40
2018-05-24T01:33:49.899Z,64.33
2018-05-24T01:36:18.592Z,63.17
2018-05-24T01:38:46.558Z,62.84
2018-05-24T01:41:14.601Z,62.69
2018-05-24T01:43:42.543Z,62.36
2018-05-24T01:46:10.570Z,62.82
2018-05-24T01:48:38.502Z,64.81
2018-05-24T01:51:06.459Z,65.75
2018-05-24T01:53:35.049Z,64.71
2018-05-24T01:56:03.701Z,64.09
2018-05-24T01:58:32.134Z,63.62
2018-05-24T02:01:00.712Z,62.23
2018-05-24T02:03:29.103Z,63.37
2018-05-24T02:05:58.106Z,63.76
2018-05-24T02:08:26.867Z,65.91
2018-05-24T02:10:55.354Z,66.00
2018-05-24T02:13:23.845Z,66.91
2018-05-24T02:15:52.414Z,69.04
2018-05-24T02:18:20.992Z,69.60
2018-05-24T02:20:49.276Z,70.16
2018-05-24T02:23:18.057Z,70.06
2018-05-24T02:25:46.536Z,69.86
2018-05-24T02:28:15.433Z,70.83
2018-05-24T02:30:43.746Z,70.89
2018-05-24T02:33:12.407Z,71.17
2018-05-24T02:35:41.084Z,71.94
2018-05-24T02:38:09.644Z,72.24
2018-05-24T02:40:38.032Z,72.02
2018-05-24T02:43:06.419Z,72.15
2018-05-24T02:45:34.649Z,71.16
2018-05-24T02:48:03.175Z,70.41
2018-05-24T02:50:32.066Z,70.45
2018-05-24T02:53:00.343Z,68.76
2018-05-24T02:55:28.817Z,67.52
2018-05-24T02:57:57.302Z,67.37
2018-05-24T03:00:25.897Z,66.81
2018-05-24T03:02:54.362Z,66.90
2018-05-24T03:05:22.841Z,66.89
2018-05-24T03:07:51.147Z,66.30
2018-05-24T03:10:19.906Z,67.88
2018-05-24T03:12:48.355Z,67.46
2018-05-24T03:15:16.852Z,68.27
2018-05-24T03:17:44.886Z,68.42
2018-05-24T03:20:12.877Z,69.05
2018-05-24T03:22:40.879Z,69.61
2018-05-24T03:25:08.840Z,69.82
2018-05-24T03:27:36.823Z,71.12
2018-05-24T03:30:04.842Z,70.97
2018-05-24T03:32:32.816Z,69.89
2018-05-24T03:35:00.793Z,69.39
2018-05-24T03:37:28.820Z,69.75
2018-05-24T03:39:56.774Z,70.80
2018-05-24T03:42:24.826Z,69.73
2018-05-24T03:44:53.621Z,71.53
2018-05-24T03:47:22.089Z,69.83
2018-05-24T03:49:50.777Z,70.39
2018-05-24T03:52:19.065Z,70.41
2018-05-24T03:54:47.639Z,71.80
2018-05-24T03:57:16.218Z,70.34
2018-05-24T04:03:02.056Z,69.17
2018-05-24T04:05:30.483Z,68.77
2018-05-24T04:07:58.881Z,68.17
2018-05-24T04:10:28.181Z,65.89
2018-05-24T04:12:56.557Z,65.51
2018-05-24T04:15:25.146Z,66.50
2018-05-24T04:17:53.357Z,66.63
2018-05-24T04:20:21.299Z,67.03
2018-05-24T04:22:49.263Z,66.79
2018-05-24T04:25:17.299Z,65.35
2018-05-24T04:27:45.223Z,65.55
2018-05-24T04:30:13.258Z,65.91
2018-05-24T04:32:41.214Z,62.95
2018-05-24T04:35:09.177Z,62.81
2018-05-24T04:37:37.186Z,62.80
2018-05-24T04:40:05.156Z,61.64
2018-05-24T04:42:33.119Z,61.46
2018-05-24T04:45:01.194Z,60.12
2018-05-24T04:47:29.150Z,59.67
2018-05-24T04:49:57.157Z,60.08
2018-05-24T04:52:25.128Z,60.44
2018-05-24T04:54:53.210Z,60.80
2018-05-24T04:57:21.266Z,60.86
2018-05-24T04:59:49.296Z,60.19
2018-05-24T05:02:17.666Z,61.02
2018-05-24T05:04:45.578Z,60.86
2018-05-24T05:07:13.492Z,59.75
2018-05-24T05:09:41.489Z,59.15
2018-05-24T05:12:09.452Z,58.96
2018-05-24T05:14:37.524Z,59.22
2018-05-24T05:17:05.531Z,58.20
2018-05-24T05:19:33.570Z,58.09
2018-05-24T05:22:01.590Z,56.97
2018-05-24T05:24:29.563Z,56.94
2018-05-24T05:26:57.567Z,58.25
2018-05-24T05:29:25.628Z,57.20
2018-05-24T05:31:53.623Z,56.44
2018-05-24T05:34:21.639Z,58.06
2018-05-24T05:36:49.607Z,59.84
2018-05-24T05:39:17.594Z,57.77
2018-05-24T05:41:45.551Z,56.63
2018-05-24T05:44:13.590Z,57.96
2018-05-24T05:46:41.582Z,56.87
2018-05-24T05:49:09.574Z,56.63
2018-05-24T05:51:37.568Z,58.91
2018-05-24T05:54:05.617Z,57.76
2018-05-24T05:56:33.635Z,57.43
2018-05-24T05:59:01.697Z,55.70
2018-05-24T06:01:29.755Z,53.50
2018-05-24T06:03:58.088Z,53.94
2018-05-24T06:06:26.101Z,54.09
2018-05-24T06:08:54.044Z,51.54
2018-05-24T06:11:22.002Z,53.65
2018-05-24T06:13:50.051Z,53.89
2018-05-24T06:16:17.988Z,51.56
2018-05-24T06:18:46.003Z,51.57
2018-05-24T06:21:13.971Z,52.99
2018-05-24T06:23:41.920Z,53.36
2018-05-24T06:26:09.895Z,53.38
2018-05-24T06:28:37.923Z,53.43
2018-05-24T06:31:05.864Z,53.78
2018-05-24T06:33:33.814Z,54.56
2018-05-24T06:36:01.770Z,54.67
2018-05-24T06:38:29.724Z,52.74
2018-05-24T06:40:57.694Z,52.96
2018-05-24T06:43:25.879Z,53.06
2018-05-24T06:45:53.874Z,52.94
2018-05-24T06:48:21.886Z,51.41
2018-05-24T06:50:49.918Z,52.71
2018-05-24T06:53:17.863Z,51.80
2018-05-24T06:55:45.855Z,51.57
2018-05-24T06:58:13.780Z,49.92
2018-05-24T07:00:41.794Z,49.80
2018-05-24T07:03:09.719Z,48.17
2018-05-24T07:05:42.611Z,46.77
2018-05-24T07:08:10.619Z,45.83
2018-05-24T07:10:38.622Z,42.69
2018-05-24T07:13:06.643Z,46.93
2018-05-24T07:15:34.617Z,46.02
2018-05-24T07:18:02.594Z,42.82
2018-05-24T07:20:30.587Z,44.05
2018-05-24T07:22:58.543Z,42.60
2018-05-24T07:25:26.498Z,42.62
2018-05-24T07:27:54.414Z,42.72
2018-05-24T07:30:22.381Z,42.02
2018-05-24T07:32:50.337Z,41.55
2018-05-24T07:35:18.440Z,39.92
2018-05-24T07:37:46.420Z,41.05
2018-05-24T07:40:14.415Z,37.76
2018-05-24T07:42:42.398Z,38.06
2018-05-24T07:45:10.454Z,37.24
2018-05-24T07:47:38.470Z,36.28
2018-05-24T07:50:06.378Z,32.96
2018-05-24T07:52:34.341Z,35.13
2018-05-24T07:55:02.336Z,34.91
2018-05-24T07:57:30.350Z,35.23
2018-05-24T07:59:58.351Z,33.36
2018-05-24T08:02:26.366Z,35.88
2018-05-24T08:04:54.520Z,38.04
2018-05-24T08:07:22.719Z,36.33
2018-05-24T08:09:50.722Z,38.48
2018-05-24T08:12:18.737Z,36.03
2018-05-24T08:14:46.714Z,33.48
2018-05-24T08:17:14.821Z,33.50
2018-05-24T08:19:42.818Z,32.27
2018-05-24T08:22:10.829Z,31.59
2018-05-24T08:24:38.829Z,33.38
2018-05-24T08:27:06.798Z,32.95
2018-05-24T08:29:34.758Z,30.02
2018-05-24T08:32:02.682Z,32.14
2018-05-24T08:34:30.627Z,31.70
2018-05-24T08:36:58.609Z,30.73
2018-05-24T08:39:26.638Z,30.96
2018-05-24T08:41:54.629Z,32.34
2018-05-24T08:44:22.612Z,30.49
2018-05-24T08:46:50.606Z,31.65
2018-05-24T08:49:18.580Z,32.31
2018-05-24T08:51:46.565Z,31.70
2018-05-24T08:54:14.739Z,29.58
2018-05-24T08:56:42.752Z,29.29
2018-05-24T08:59:10.743Z,32.05
2018-05-24T09:01:38.753Z,31.11
2018-05-24T09:04:06.756Z,30.72
2018-05-24T09:06:34.826Z,32.68
2018-05-24T09:09:03.225Z,32.17
2018-05-24T09:11:31.307Z,33.27
2018-05-24T09:13:59.336Z,35.41
2018-05-24T09:16:27.430Z,35.37
2018-05-24T09:18:55.432Z,35.28
2018-05-24T09:21:23.425Z,35.87
2018-05-24T09:23:51.406Z,37.57
2018-05-24T09:26:19.465Z,37.16
2018-05-24T09:28:47.493Z,38.16
2018-05-24T09:31:15.471Z,39.32
2018-05-24T09:33:43.486Z,40.46
2018-05-24T09:36:11.493Z,39.72
2018-05-24T09:38:39.485Z,39.77
2018-05-24T09:41:07.559Z,40.91
2018-05-24T09:43:35.525Z,41.22
2018-05-24T09:46:03.567Z,40.53
2018-05-24T09:48:31.606Z,43.07
2018-05-24T09:50:59.614Z,42.61
2018-05-24T09:53:27.681Z,43.75
2018-05-24T09:55:55.691Z,43.85
2018-05-24T09:58:24.346Z,45.43
2018-05-24T10:00:52.289Z,47.81
2018-05-24T10:03:20.352Z,46.59
2018-05-24T10:05:48.499Z,46.90
2018-05-24T10:08:16.488Z,46.15
2018-05-24T10:10:45.008Z,46.08
2018-05-24T10:13:13.012Z,46.97
2018-05-24T10:15:41.014Z,45.76
2018-05-24T10:18:09.000Z,46.08
2018-05-24T10:20:36.982Z,45.52
2018-05-24T10:23:04.964Z,45.33
2018-05-24T10:25:32.970Z,45.09
2018-05-24T10:28:01.618Z,43.72
2018-05-24T10:30:29.583Z,43.38
2018-05-24T10:32:57.545Z,43.21
2018-05-24T10:35:25.592Z,44.42
2018-05-24T10:37:53.549Z,44.45
2018-05-24T10:40:21.499Z,44.00
2018-05-24T10:42:49.494Z,44.65
2018-05-24T10:45:17.610Z,43.70
2018-05-24T10:47:45.539Z,41.52
2018-05-24T10:50:13.522Z,43.24
2018-05-24T10:52:41.418Z,43.01
2018-05-24T10:55:10.043Z,41.38
2018-05-24T10:57:38.048Z,43.31
2018-05-24T11:00:06.391Z,41.57
2018-05-24T11:02:34.334Z,44.28
2018-05-24T11:05:02.341Z,44.89
2018-05-24T11:07:32.132Z,44.24
2018-05-24T11:10:00.223Z,44.45
2018-05-24T11:12:28.442Z,43.97
2018-05-24T11:14:56.504Z,41.50
2018-05-24T11:17:24.461Z,42.19
2018-05-24T11:19:52.465Z,38.72
2018-05-24T11:22:20.464Z,40.26
2018-05-24T11:24:48.414Z,38.73
2018-05-24T11:27:16.370Z,36.39
2018-05-24T11:29:44.321Z,35.98
2018-05-24T11:32:12.307Z,37.39
2018-05-24T11:34:40.377Z,39.25
2018-05-24T11:37:08.403Z,36.04
2018-05-24T11:39:36.433Z,33.82
2018-05-24T11:42:04.434Z,35.23
2018-05-24T11:44:32.445Z,35.34
2018-05-24T11:47:00.439Z,36.29
2018-05-24T11:49:28.393Z,35.96
2018-05-24T11:51:56.400Z,35.55
2018-05-24T11:54:24.337Z,32.34
2018-05-24T11:56:52.333Z,32.57
2018-05-24T11:59:20.310Z,33.51
2018-05-24T12:01:48.329Z,31.74
2018-05-24T12:04:16.412Z,28.13
2018-05-24T12:06:44.364Z,27.25
2018-05-24T12:09:12.307Z,27.72
2018-05-24T12:11:40.253Z,26.63
2018-05-24T12:14:08.625Z,26.80
2018-05-24T12:16:36.675Z,27.87
2018-05-24T12:19:04.798Z,27.42
2018-05-24T12:21:32.839Z,26.23
2018-05-24T12:24:00.785Z,25.84
2018-05-24T12:26:28.818Z,28.71
2018-05-24T12:28:56.888Z,30.44
2018-05-24T12:31:25.069Z,29.46
2018-05-24T12:33:53.103Z,29.01
2018-05-24T12:36:21.056Z,28.89
2018-05-24T12:38:49.009Z,31.56
2018-05-24T12:41:17.039Z,30.71
2018-05-24T12:43:45.031Z,32.92
2018-05-24T12:46:13.010Z,32.44
2018-05-24T12:48:41.034Z,32.52
2018-05-24T12:51:09.036Z,32.66
2018-05-24T12:53:36.954Z,32.42
2018-05-24T12:56:04.984Z,31.74
2018-05-24T12:58:32.958Z,31.67
2018-05-24T13:01:00.908Z,32.48
2018-05-24T13:03:28.959Z,34.06
2018-05-24T13:05:56.940Z,35.59
2018-05-24T13:08:24.903Z,36.11
2018-05-24T13:10:52.919Z,36.23
2018-05-24T13:13:20.923Z,37.95
2018-05-24T13:15:48.980Z,40.39
2018-05-24T13:18:17.042Z,41.12
2018-05-24T13:20:45.010Z,42.59
2018-05-24T13:23:12.981Z,41.20
2018-05-24T13:25:41.082Z,40.19
2018-05-24T13:28:09.045Z,41.47
2018-05-24T13:30:37.042Z,43.19
2018-05-24T13:33:05.100Z,45.60
2018-05-24T13:35:33.057Z,46.04
2018-05-24T13:38:01.010Z,50.82
2018-05-24T13:40:28.985Z,53.40
2018-05-24T13:42:57.009Z,53.82
2018-05-24T13:45:25.054Z,54.80
2018-05-24T13:47:53.041Z,56.32
2018-05-24T13:50:21.056Z,54.91
2018-05-24T13:52:49.067Z,53.71
2018-05-24T13:55:17.019Z,54.77
2018-05-24T13:57:46.900Z,55.30
2018-05-24T14:00:14.914Z,54.54
2018-05-24T14:02:42.837Z,56.81
2018-05-24T14:05:10.866Z,57.94
2018-05-24T14:07:39.759Z,58.75
2018-05-24T14:10:07.785Z,57.22
2018-05-24T14:12:35.813Z,55.34
2018-05-24T14:15:03.958Z,54.09
2018-05-24T14:17:32.377Z,55.82
2018-05-24T14:20:00.497Z,54.20
2018-05-24T14:22:28.539Z,54.05
2018-05-24T14:24:56.569Z,53.64
2018-05-24T14:27:24.513Z,53.26
2018-05-24T14:29:52.451Z,51.86
2018-05-24T14:32:20.693Z,50.29
2018-05-24T14:34:48.727Z,54.05
2018-05-24T14:37:16.816Z,54.55
2018-05-24T14:39:44.762Z,56.77
2018-05-24T14:42:12.679Z,56.80
2018-05-24T14:44:40.711Z,55.66
2018-05-24T14:47:08.727Z,57.20
2018-05-24T14:49:36.762Z,54.86
2018-05-24T14:52:04.801Z,53.81
2018-05-24T14:54:32.728Z,51.21
2018-05-24T14:57:00.710Z,52.33
2018-05-24T14:59:28.772Z,52.34
2018-05-24T15:01:56.802Z,51.43
2018-05-24T15:04:24.753Z,53.84
2018-05-24T15:06:52.842Z,55.48
2018-05-24T15:09:21.330Z,58.52
2018-05-24T15:11:49.629Z,60.74
2018-05-24T15:14:17.708Z,55.79
2018-05-24T15:16:45.720Z,56.61
2018-05-24T15:19:13.819Z,55.42
2018-05-24T15:21:41.834Z,57.60
2018-05-24T15:24:09.773Z,58.33
2018-05-24T15:26:37.730Z,59.50
2018-05-24T15:29:05.710Z,57.51
2018-05-24T15:31:33.727Z,57.19
2018-05-24T15:34:01.657Z,56.35
2018-05-24T15:36:29.634Z,54.66
2018-05-24T15:38:57.650Z,54.98
2018-05-24T15:41:25.753Z,56.17
2018-05-24T15:43:53.728Z,57.40
2018-05-24T15:46:22.383Z,56.55
2018-05-24T15:48:50.434Z,56.10
2018-05-24T15:51:18.371Z,55.76
2018-05-24T15:53:46.354Z,56.81
2018-05-24T15:56:14.365Z,60.59
2018-05-24T15:58:42.376Z,60.42
2018-05-24T16:01:10.367Z,61.52
2018-05-24T16:03:38.360Z,62.40
2018-05-24T16:06:06.374Z,61.32
2018-05-24T16:08:34.260Z,61.06
2018-05-24T16:11:02.258Z,58.90
2018-05-24T16:13:30.232Z,61.60
2018-05-24T16:15:58.259Z,63.38
2018-05-24T16:18:26.204Z,63.91
2018-05-24T16:20:54.299Z,64.57
2018-05-24T16:23:22.413Z,65.71
2018-05-24T16:25:50.429Z,62.72
2018-05-24T16:28:18.549Z,62.00
2018-05-24T16:30:46.587Z,61.01
2018-05-24T16:33:15.581Z,60.56
2018-05-24T16:35:44.190Z,63.10
2018-05-24T16:38:13.158Z,63.17
2018-05-24T16:52:19.644Z,63.33
2018-05-24T16:54:47.551Z,63.84
2018-05-24T16:57:15.530Z,64.26
2018-05-24T16:59:43.596Z,64.35
2018-05-24T17:02:11.662Z,64.88
2018-05-24T17:04:39.664Z,64.84
2018-05-24T17:07:07.595Z,65.59
2018-05-24T17:09:35.663Z,65.43
2018-05-24T17:12:03.902Z,65.36
2018-05-24T17:14:31.961Z,65.69
2018-05-24T17:16:59.896Z,64.90
2018-05-24T17:19:27.901Z,64.30
2018-05-24T17:21:55.879Z,63.62
2018-05-24T17:24:23.888Z,65.13
2018-05-24T17:26:51.854Z,61.74
2018-05-24T17:29:19.911Z,61.63
2018-05-24T17:31:47.877Z,60.49
2018-05-24T17:34:15.849Z,61.62
2018-05-24T17:36:43.826Z,60.97
2018-05-24T17:39:11.883Z,61.53
2018-05-24T17:41:39.867Z,59.95
2018-05-24T17:44:07.858Z,59.48
2018-05-24T17:46:35.922Z,57.58
2018-05-24T17:49:03.957Z,59.27
2018-05-24T17:51:31.957Z,60.14
2018-05-24T17:54:00.206Z,61.20
2018-05-24T17:56:28.223Z,63.17
2018-05-24T17:58:56.242Z,62.87
2018-05-24T18:01:24.261Z,63.18
2018-05-24T18:03:52.196Z,63.25
2018-05-24T18:06:20.161Z,63.64
2018-05-24T18:08:48.192Z,61.82
2018-05-24T18:11:16.368Z,61.03
2018-05-24T18:13:44.434Z,60.24
2018-05-24T18:16:12.559Z,59.65
2018-05-24T18:18:40.585Z,60.25
2018-05-24T18:21:08.576Z,59.97
2018-05-24T18:23:36.593Z,60.18
2018-05-24T18:26:04.579Z,59.28
2018-05-24T18:28:32.545Z,59.25
2018-05-24T18:31:00.510Z,57.91
2018-05-24T18:33:28.530Z,59.83
2018-05-24T18:35:56.584Z,58.37
2018-05-24T18:38:24.613Z,58.29
2018-05-24T18:40:52.730Z,59.23
2018-05-24T18:43:20.685Z,60.49
2018-05-24T18:45:48.686Z,61.44
2018-05-24T18:48:16.737Z,62.33
2018-05-24T18:50:44.670Z,62.23
2018-05-24T18:53:12.657Z,61.75
2018-05-24T18:55:40.949Z,60.39
2018-05-24T18:58:08.868Z,58.80
2018-05-24T19:00:36.911Z,58.92
2018-05-24T19:03:04.884Z,61.38
2018-05-24T19:05:32.822Z,59.86
2018-05-24T19:08:00.863Z,59.72
2018-05-24T19:10:28.863Z,59.53
2018-05-24T19:12:56.875Z,58.47
2018-05-24T19:15:24.818Z,60.63
2018-05-24T19:17:52.837Z,59.70
2018-05-24T19:20:20.822Z,61.58
2018-05-24T19:22:48.854Z,61.16
2018-05-24T19:25:16.891Z,61.77
2018-05-24T19:27:44.852Z,61.69
2018-05-24T19:30:12.794Z,62.04
2018-05-24T19:32:40.827Z,60.25
2018-05-24T19:35:08.923Z,59.32
2018-05-24T19:37:36.926Z,60.26
2018-05-24T19:40:04.917Z,60.32
2018-05-24T19:42:32.952Z,62.74
2018-05-24T19:45:01.093Z,60.75
2018-05-24T19:47:29.109Z,59.35
2018-05-24T19:49:57.043Z,58.94
2018-05-24T19:52:26.090Z,59.28
2018-05-24T19:54:54.118Z,59.52
2018-05-24T19:57:22.418Z,59.39
2018-05-24T19:59:50.367Z,62.86
2018-05-24T20:02:18.457Z,63.48
2018-05-24T20:04:46.442Z,63.84
2018-05-24T20:07:14.461Z,62.07
2018-05-24T20:09:42.473Z,61.14
2018-05-24T20:12:10.422Z,61.28
2018-05-24T20:14:38.409Z,61.15
2018-05-24T20:17:06.455Z,60.77
2018-05-24T20:19:34.427Z,60.59
2018-05-24T20:22:02.412Z,60.19
2018-05-24T20:24:30.432Z,60.82
2018-05-24T20:26:58.370Z,60.16
2018-05-24T20:29:26.295Z,64.64
2018-05-24T20:31:54.328Z,65.66
2018-05-24T20:34:22.311Z,66.68
2018-05-24T20:36:50.359Z,68.48
2018-05-24T20:39:18.346Z,66.33
2018-05-24T20:41:46.354Z,67.18
2018-05-24T20:44:14.325Z,63.94
2018-05-24T20:46:42.303Z,65.15
2018-05-24T20:49:10.286Z,65.08
2018-05-24T20:51:38.291Z,65.21
2018-05-24T20:54:06.311Z,66.05
2018-05-24T20:56:34.332Z,66.76
2018-05-24T20:59:02.646Z,67.19
2018-05-24T21:01:30.787Z,65.78
2018-05-24T21:03:58.734Z,63.37
2018-05-24T21:06:26.747Z,62.76
2018-05-24T21:08:54.894Z,61.75
2018-05-24T21:11:22.943Z,60.55
2018-05-24T21:13:51.073Z,60.56
2018-05-24T21:16:19.108Z,60.30
2018-05-24T21:18:47.085Z,60.28
2018-05-24T21:21:15.068Z,60.12
2018-05-24T21:23:43.151Z,60.27
2018-05-24T21:26:11.165Z,61.59
2018-05-24T21:28:39.170Z,61.23
2018-05-24T21:31:07.128Z,60.82
2018-05-24T21:33:35.142Z,61.32
2018-05-24T21:36:03.173Z,62.23
2018-05-24T21:38:31.197Z,61.06
2018-05-24T21:40:59.058Z,61.18
2018-05-24T21:43:27.056Z,64.29
2018-05-24T21:45:55.097Z,65.32
2018-05-24T21:48:23.107Z,65.37
2018-05-24T21:50:51.181Z,64.79
2018-05-24T21:53:19.115Z,63.37
2018-05-24T21:55:47.101Z,63.91
2018-05-24T21:58:15.133Z,62.35
2018-05-24T22:00:48.714Z,62.87
2018-05-24T22:03:16.773Z,61.61
2018-05-24T22:05:44.806Z,62.58
2018-05-24T22:08:12.849Z,64.42
2018-05-24T22:10:40.831Z,61.77
2018-05-24T22:13:08.864Z,60.69
2018-05-24T22:15:36.884Z,60.06
2018-05-24T22:18:04.868Z,60.28
2018-05-24T22:20:32.841Z,58.51
2018-05-24T22:23:00.860Z,59.00
2018-05-24T22:25:28.926Z,58.90
2018-05-24T22:27:56.968Z,58.82
2018-05-24T22:30:24.959Z,59.96
2018-05-24T22:32:52.992Z,59.29
2018-05-24T22:35:20.901Z,60.48
2018-05-24T22:37:49.046Z,61.70
2018-05-24T22:40:17.099Z,63.99
2018-05-24T22:42:45.431Z,63.93
2018-05-24T22:45:13.522Z,63.31
2018-05-24T22:47:41.558Z,62.05
2018-05-24T22:50:09.462Z,63.09
2018-05-24T22:52:37.466Z,64.09
2018-05-24T22:55:05.430Z,64.08
2018-05-24T22:57:33.465Z,63.14
2018-05-24T23:00:01.495Z,62.69
2018-05-24T23:02:29.880Z,60.96
2018-05-24T23:04:57.865Z,61.13
2018-05-24T23:07:25.897Z,61.77
2018-05-24T23:09:53.923Z,64.06
2018-05-24T23:12:21.930Z,64.05
2018-05-24T23:14:49.939Z,62.64
2018-05-24T23:17:17.954Z,62.12
2018-05-24T23:19:45.927Z,62.15
2018-05-24T23:22:25.525Z,62.84
2018-05-24T23:24:53.490Z,61.26
2018-05-24T23:27:22.165Z,61.67
2018-05-24T23:29:50.101Z,63.27
2018-05-24T23:32:18.081Z,65.32
2018-05-24T23:34:46.006Z,65.70
2018-05-24T23:37:14.050Z,66.02
2018-05-24T23:39:42.032Z,66.23
2018-05-24T23:42:10.103Z,66.15
2018-05-24T23:44:38.070Z,65.58
2018-05-24T23:47:06.049Z,64.79
2018-05-24T23:49:34.016Z,65.72
2018-05-24T23:52:01.966Z,65.21
2018-05-24T23:54:30.002Z,64.75
2018-05-24T23:56:57.945Z,65.44
2018-05-24T23:59:25.949Z,65.23
